Time;durP1;ratioP1;P1;durP2;ratioP2;P2;SDS_P1;SDS_P2;PMS_P1;PMS_P2;Temp;Humidity;BMP_temperature;BMP_pressure;BME280_temperature;BME280_humidity;BME280_pressure;Samples;Min_cycle;Max_cycle;Signal;HPM_P1;HPM_P2
2023/05/25 00:00:13;;;;;;;6.60;3.60;;;19.60;76.90;;;;;;7397623;19;19925;-71
2023/05/25 00:02:38;;;;;;;;;;;19.60;76.70;;;;;;7402208;19;19922;-71
2023/05/25 00:05:07;;;;;;;6.55;3.30;;;19.60;76.60;;;;;;7399025;19;19925;-71
2023/05/25 00:07:33;;;;;;;8.35;4.22;;;19.70;75.60;;;;;;7399260;19;19925;-71
2023/05/25 00:09:59;;;;;;;7.80;4.13;;;19.60;76.70;;;;;;7397919;19;19994;-71
2023/05/25 00:12:26;;;;;;;9.73;4.30;;;19.70;76.90;;;;;;7399556;19;20360;-70
2023/05/25 00:14:51;;;;;;;10.10;5.28;;;19.70;77.00;;;;;;7398960;19;20442;-71
2023/05/25 00:17:17;;;;;;;9.88;5.53;;;19.70;77.50;;;;;;7395478;19;19914;-70
2023/05/25 00:19:44;;;;;;;14.52;5.32;;;19.70;77.80;;;;;;7398215;19;20352;-70
2023/05/25 00:22:10;;;;;;;12.23;5.32;;;19.70;77.90;;;;;;7398992;19;20343;-72
2023/05/25 00:24:38;;;;;;;9.13;5.05;;;19.70;78.20;;;;;;7399038;19;20387;-71
2023/05/25 00:27:06;;;;;;;9.77;5.65;;;19.80;77.90;;;;;;7402470;19;19918;-71
2023/05/25 00:29:32;;;;;;;7.32;4.57;;;19.70;78.00;;;;;;7406457;19;19918;-71
2023/05/25 00:31:58;;;;;;;11.23;5.22;;;19.70;78.60;;;;;;7402811;19;19918;-71
2023/05/25 00:34:23;;;;;;;10.45;5.60;;;19.60;79.40;;;;;;7400039;19;19934;-71
2023/05/25 00:36:49;;;;;;;11.02;5.82;;;19.60;80.10;;;;;;7401568;19;19948;-71
2023/05/25 00:39:17;;;;;;;13.05;7.13;;;19.60;80.30;;;;;;7402244;19;20335;-70
2023/05/25 00:41:47;;;;;;;11.77;5.55;;;19.60;80.30;;;;;;7405375;19;19918;-71
2023/05/25 00:44:14;;;;;;;9.98;5.47;;;19.50;80.30;;;;;;7402634;19;19939;-71
2023/05/25 00:46:46;;;;;;;11.60;6.07;;;19.60;80.30;;;;;;7405117;19;20453;-70
2023/05/25 00:49:17;;;;;;;10.18;5.30;;;19.60;80.30;;;;;;7403442;19;19915;-70
2023/05/25 00:51:46;;;;;;;13.30;5.40;;;19.70;80.10;;;;;;7403219;19;19922;-70
2023/05/25 00:54:16;;;;;;;10.30;5.78;;;19.70;79.70;;;;;;7403499;19;20910;-70
2023/05/25 00:56:46;;;;;;;9.27;5.38;;;19.70;79.50;;;;;;7406521;19;19919;-70
2023/05/25 00:59:19;;;;;;;7.05;4.18;;;19.80;79.50;;;;;;7400872;19;19918;-70
2023/05/25 01:01:47;;;;;;;9.18;5.55;;;19.80;74.60;;;;;;7401900;19;19946;-71
2023/05/25 01:04:15;;;;;;;7.55;3.97;;;19.90;78.20;;;;;;7398655;19;19918;-70
2023/05/25 01:06:46;;;;;;;6.57;3.30;;;19.80;74.50;;;;;;7397921;19;19915;-70
2023/05/25 01:09:16;;;;;;;4.82;2.90;;;19.80;73.30;;;;;;7400255;19;19995;-71
2023/05/25 01:11:44;;;;;;;7.35;2.50;;;19.80;71.90;;;;;;7405698;19;19911;-70
2023/05/25 01:14:10;;;;;;;6.07;2.47;;;19.80;70.80;;;;;;7403552;19;19915;-70
2023/05/25 01:16:36;;;;;;;5.20;2.22;;;19.80;70.10;;;;;;7371948;19;19910;-71
2023/05/25 01:19:03;;;;;;;5.63;3.25;;;19.80;70.10;;;;;;7403116;19;19970;-70
2023/05/25 01:21:40;;;;;;;6.60;2.97;;;19.90;70.20;;;;;;7402888;19;19921;-70
2023/05/25 01:24:31;;;;;;;6.20;2.80;;;19.90;70.50;;;;;;7398901;19;20369;-71
2023/05/25 01:27:17;;;;;;;6.45;3.22;;;19.90;71.10;;;;;;7399002;19;19918;-71
2023/05/25 01:29:45;;;;;;;7.72;3.80;;;20.00;71.50;;;;;;7401112;19;19910;-71
2023/05/25 01:32:12;;;;;;;6.68;3.35;;;20.00;72.90;;;;;;7400097;19;20441;-70
2023/05/25 01:34:41;;;;;;;7.68;3.63;;;20.00;73.40;;;;;;7400836;19;20311;-72
2023/05/25 01:37:07;;;;;;;7.47;3.90;;;20.00;73.70;;;;;;7398012;19;20464;-71
2023/05/25 01:39:33;;;;;;;9.30;3.90;;;20.00;73.60;;;;;;7402244;19;19993;-72
2023/05/25 01:41:58;;;;;;;7.22;3.50;;;20.00;73.40;;;;;;7401504;19;19922;-70
2023/05/25 01:44:25;;;;;;;6.25;3.35;;;20.00;72.60;;;;;;7400259;19;19918;-70
2023/05/25 01:47:01;;;;;;;6.22;3.40;;;20.00;72.30;;;;;;7398235;19;19926;-71
2023/05/25 01:49:57;;;;;;;5.38;2.92;;;20.00;72.00;;;;;;7395744;19;19918;-70
2023/05/25 01:52:27;;;;;;;8.05;3.25;;;20.10;70.80;;;;;;7402231;19;20380;-70
2023/05/25 01:55:01;;;;;;;5.25;3.40;;;20.10;70.50;;;;;;7404816;19;19919;-71
2023/05/25 01:57:28;;;;;;;5.72;3.17;;;20.10;70.40;;;;;;7397311;19;19919;-70
2023/05/25 02:00:01;;;;;;;5.25;2.40;;;20.10;70.20;;;;;;7403109;19;20373;-72
2023/05/25 02:02:27;;;;;;;6.95;3.28;;;20.10;67.90;;;;;;7401475;19;20358;-71
2023/05/25 02:04:56;;;;;;;;;;;20.20;67.10;;;;;;7400831;19;19922;-72
2023/05/25 02:07:22;;;;;;;3.85;1.77;;;20.20;65.40;;;;;;7399235;19;19923;-71
2023/05/25 02:09:48;;;;;;;3.70;1.60;;;20.20;65.30;;;;;;7398524;19;19919;-70
2023/05/25 02:12:14;;;;;;;5.55;1.92;;;20.20;65.30;;;;;;7399177;19;19946;-70
2023/05/25 02:14:40;;;;;;;4.13;1.85;;;20.20;65.30;;;;;;7404034;19;19914;-71
2023/05/25 02:17:06;;;;;;;3.83;1.77;;;20.10;64.80;;;;;;7396400;19;19921;-71
2023/05/25 02:19:32;;;;;;;4.10;1.60;;;20.10;64.20;;;;;;7399803;19;20236;-72
2023/05/25 02:21:58;;;;;;;3.95;1.35;;;20.20;63.50;;;;;;7402558;19;19933;-70
2023/05/25 02:24:24;;;;;;;7.18;2.20;;;20.20;63.30;;;;;;7397923;19;20003;-71
2023/05/25 02:26:50;;;;;;;3.67;1.40;;;20.20;63.10;;;;;;7399791;19;19919;-72
2023/05/25 02:29:16;;;;;;;7.18;1.90;;;20.30;65.70;;;;;;7397867;19;20344;-70
2023/05/25 02:31:42;;;;;;;6.68;2.40;;;19.90;73.00;;;;;;7399523;19;19914;-72
2023/05/25 02:34:08;;;;;;;5.38;2.47;;;18.90;83.90;;;;;;7398627;19;19926;-72
2023/05/25 02:36:35;;;;;;;8.13;2.75;;;18.10;92.60;;;;;;7399375;19;19923;-73
2023/05/25 02:39:00;;;;;;;10.95;3.97;;;17.60;98.50;;;;;;7403290;19;19974;-72
2023/05/25 02:41:26;;;;;;;10.63;4.03;;;17.20;99.90;;;;;;7400222;19;19957;-71
2023/05/25 02:43:52;;;;;;;5.88;2.80;;;16.70;99.90;;;;;;7401202;19;20437;-70
2023/05/25 02:46:19;;;;;;;9.00;3.05;;;16.20;99.90;;;;;;7393891;19;19944;-70
2023/05/25 02:48:45;;;;;;;5.65;2.08;;;15.90;99.90;;;;;;7397150;19;20284;-70
2023/05/25 02:51:11;;;;;;;5.38;2.08;;;15.70;99.90;;;;;;7395928;19;19928;-71
2023/05/25 02:53:37;;;;;;;3.90;2.03;;;15.70;99.90;;;;;;7397126;19;19910;-70
2023/05/25 02:56:04;;;;;;;7.03;2.00;;;15.60;99.90;;;;;;7400535;19;19922;-70
2023/05/25 02:58:30;;;;;;;3.95;2.10;;;15.50;99.90;;;;;;7398327;19;19945;-71
2023/05/25 03:00:58;;;;;;;5.55;2.03;;;15.50;99.90;;;;;;7397061;19;19948;-71
2023/05/25 03:03:25;;;;;;;5.30;2.45;;;15.50;99.90;;;;;;7397534;19;19937;-71
2023/05/25 03:05:51;;;;;;;6.43;2.22;;;15.50;99.90;;;;;;7397496;19;19925;-71
2023/05/25 03:08:17;;;;;;;4.60;2.40;;;15.50;99.90;;;;;;7398097;19;19999;-70
2023/05/25 03:10:44;;;;;;;5.20;2.40;;;15.40;99.90;;;;;;7396249;19;20342;-71
2023/05/25 03:13:09;;;;;;;5.10;2.53;;;15.40;99.90;;;;;;7395860;19;19910;-70
2023/05/25 03:15:35;;;;;;;5.05;2.50;;;15.40;99.90;;;;;;7397170;19;20370;-70
2023/05/25 03:18:01;;;;;;;5.55;2.60;;;15.50;99.90;;;;;;7398951;19;19914;-70
2023/05/25 03:20:27;;;;;;;5.18;2.30;;;15.40;99.90;;;;;;7397862;19;19952;-70
2023/05/25 03:22:54;;;;;;;5.22;2.03;;;15.50;99.90;;;;;;7398632;19;19910;-70
2023/05/25 03:25:20;;;;;;;5.28;2.33;;;15.40;99.90;;;;;;7395283;19;19949;-70
2023/05/25 03:27:46;;;;;;;6.72;2.53;;;15.40;99.90;;;;;;7395526;19;19914;-71
2023/05/25 03:30:12;;;;;;;5.90;2.40;;;15.40;99.90;;;;;;7397322;19;20354;-70
2023/05/25 03:32:38;;;;;;;7.50;2.55;;;15.50;99.90;;;;;;7399037;19;20275;-71
2023/05/25 03:35:07;;;;;;;6.53;2.40;;;15.50;99.90;;;;;;7395007;19;19978;-71
2023/05/25 03:37:35;;;;;;;4.63;2.88;;;15.50;99.90;;;;;;7392643;19;20279;-71
2023/05/25 03:40:01;;;;;;;7.05;2.80;;;15.50;99.90;;;;;;7400417;19;19942;-71
2023/05/25 03:42:28;;;;;;;5.53;2.70;;;15.50;99.90;;;;;;7397474;19;19915;-70
2023/05/25 03:44:53;;;;;;;5.78;2.13;;;15.50;99.90;;;;;;7397973;19;19930;-71
2023/05/25 03:47:19;;;;;;;5.13;2.42;;;15.50;99.90;;;;;;7395787;19;19914;-71
2023/05/25 03:49:45;;;;;;;4.45;2.10;;;15.50;99.90;;;;;;7397393;19;19929;-70
2023/05/25 03:52:11;;;;;;;4.93;2.17;;;15.40;99.90;;;;;;7392277;19;20807;-72
2023/05/25 03:54:36;;;;;;;5.95;2.30;;;15.40;99.90;;;;;;7397924;19;19925;-71
2023/05/25 03:57:02;;;;;;;4.57;2.10;;;15.40;99.90;;;;;;7392382;19;19911;-71
2023/05/25 03:59:28;;;;;;;5.20;2.58;;;15.40;99.90;;;;;;7397658;19;19969;-72
2023/05/25 04:01:54;;;;;;;6.32;2.80;;;15.40;99.90;;;;;;7396750;19;20341;-70
2023/05/25 04:04:20;;;;;;;6.38;2.72;;;15.40;99.90;;;;;;7394775;19;19919;-71
2023/05/25 04:06:47;;;;;;;5.40;2.88;;;15.30;99.90;;;;;;7394421;19;19990;-72
2023/05/25 04:09:16;;;;;;;7.05;2.63;;;15.40;99.90;;;;;;7395797;19;19915;-70
2023/05/25 04:11:44;;;;;;;4.85;2.40;;;15.40;99.90;;;;;;7396410;19;19914;-70
2023/05/25 04:14:10;;;;;;;5.35;2.17;;;15.40;99.90;;;;;;7393922;19;19932;-70
2023/05/25 04:16:35;;;;;;;6.25;2.50;;;15.30;99.90;;;;;;7398584;19;20312;-71
2023/05/25 04:19:01;;;;;;;7.00;2.88;;;15.30;99.90;;;;;;7396054;19;19910;-71
2023/05/25 04:21:27;;;;;;;6.45;2.72;;;15.20;99.90;;;;;;7393764;19;19918;-71
2023/05/25 04:23:53;;;;;;;6.45;3.10;;;15.30;99.90;;;;;;7397657;19;19964;-71
2023/05/25 04:26:19;;;;;;;7.80;3.55;;;15.20;99.90;;;;;;7395753;19;19922;-70
2023/05/25 04:28:45;;;;;;;9.60;2.85;;;15.20;99.90;;;;;;7399572;19;19929;-71
2023/05/25 04:31:14;;;;;;;6.60;3.35;;;15.30;99.90;;;;;;7396005;19;20357;-72
2023/05/25 04:33:39;;;;;;;6.85;3.35;;;15.30;99.90;;;;;;7393056;19;20274;-72
2023/05/25 04:36:06;;;;;;;7.45;3.33;;;15.30;99.90;;;;;;7398380;19;19911;-72
2023/05/25 04:38:32;;;;;;;12.32;5.97;;;15.20;99.90;;;;;;7396689;19;19923;-71
2023/05/25 04:40:58;;;;;;;8.30;3.72;;;15.10;99.90;;;;;;7393631;19;19918;-70
2023/05/25 04:43:28;;;;;;;6.75;3.75;;;15.10;99.90;;;;;;7391672;19;19919;-72
2023/05/25 04:45:54;;;;;;;6.60;3.85;;;15.10;99.90;;;;;;7394955;19;19937;-70
2023/05/25 04:48:20;;;;;;;11.95;4.15;;;15.00;99.90;;;;;;7398284;19;19927;-69
2023/05/25 04:50:46;;;;;;;8.52;4.43;;;15.00;99.90;;;;;;7393100;19;19925;-70
2023/05/25 04:53:12;;;;;;;8.25;4.43;;;15.10;99.90;;;;;;7394421;19;19925;-70
2023/05/25 04:55:38;;;;;;;6.88;4.28;;;15.20;99.90;;;;;;7396590;19;19915;-72
2023/05/25 04:58:04;;;;;;;10.82;4.40;;;15.30;99.90;;;;;;7396122;19;19922;-71
2023/05/25 05:00:30;;;;;;;10.10;4.65;;;15.30;99.90;;;;;;7396906;19;19925;-70
2023/05/25 05:02:57;;;;;;;9.07;5.13;;;15.40;99.90;;;;;;7397384;19;19923;-71
2023/05/25 05:05:23;;;;;;;11.05;5.28;;;15.40;99.90;;;;;;7394182;19;21177;-70
2023/05/25 05:07:50;;;;;;;12.75;6.05;;;15.40;99.90;;;;;;7396783;19;19911;-70
2023/05/25 05:10:17;;;;;;;;;;;15.40;99.90;;;;;;7393367;19;19931;-70
2023/05/25 05:12:43;;;;;;;14.60;7.07;;;15.40;99.90;;;;;;7396995;19;20331;-71
2023/05/25 05:15:09;;;;;;;18.50;7.68;;;15.50;99.90;;;;;;7399203;19;19946;-71
2023/05/25 05:17:35;;;;;;;15.73;8.02;;;15.50;99.90;;;;;;7400791;19;19939;-70
2023/05/25 05:20:00;;;;;;;17.27;7.80;;;15.50;99.90;;;;;;7400040;19;19910;-71
2023/05/25 05:22:26;;;;;;;17.83;7.32;;;15.50;99.90;;;;;;7398839;19;19919;-71
2023/05/25 05:24:52;;;;;;;13.93;6.93;;;15.50;99.90;;;;;;7400037;19;19925;-71
2023/05/25 05:27:18;;;;;;;19.63;8.20;;;15.60;99.90;;;;;;7399248;19;20339;-71
2023/05/25 05:29:44;;;;;;;16.25;7.53;;;15.70;99.90;;;;;;7402921;19;19922;-71
2023/05/25 05:32:10;;;;;;;16.95;7.70;;;15.60;99.90;;;;;;7398153;19;19910;-70
2023/05/25 05:34:36;;;;;;;14.30;7.50;;;15.70;99.90;;;;;;7402702;19;20291;-70
2023/05/25 05:37:02;;;;;;;23.05;7.25;;;15.60;99.90;;;;;;7399947;19;20354;-71
2023/05/25 05:39:28;;;;;;;16.50;6.53;;;15.60;99.90;;;;;;7401949;19;19922;-71
2023/05/25 05:41:54;;;;;;;19.85;6.05;;;15.60;99.90;;;;;;7399167;19;19926;-71
2023/05/25 05:44:21;;;;;;;14.00;5.97;;;15.60;99.90;;;;;;7399435;19;19922;-70
2023/05/25 05:46:47;;;;;;;15.68;4.55;;;15.50;99.90;;;;;;7402666;19;19931;-72
2023/05/25 05:49:13;;;;;;;14.73;5.07;;;15.60;99.90;;;;;;7397273;19;19911;-72
2023/05/25 05:51:38;;;;;;;15.23;5.10;;;15.50;99.90;;;;;;7402854;19;19919;-71
2023/05/25 05:54:05;;;;;;;15.43;4.75;;;15.40;99.90;;;;;;7399659;19;19934;-72
2023/05/25 05:56:31;;;;;;;16.55;5.15;;;15.40;99.90;;;;;;7402604;19;19914;-71
2023/05/25 05:58:56;;;;;;;15.23;5.53;;;15.40;99.90;;;;;;7399603;19;20263;-72
2023/05/25 06:01:22;;;;;;;10.65;5.22;;;15.40;99.90;;;;;;7398751;19;20014;-70
2023/05/25 06:03:48;;;;;;;16.15;5.95;;;15.50;99.90;;;;;;7403294;19;19931;-71
2023/05/25 06:06:15;;;;;;;13.68;5.28;;;15.50;99.90;;;;;;7378498;19;20790;-71
2023/05/25 06:08:45;;;;;;;10.52;5.28;;;15.50;99.90;;;;;;7399276;19;19938;-72
2023/05/25 06:11:11;;;;;;;14.77;5.18;;;15.60;99.90;;;;;;7400582;19;19926;-71
2023/05/25 06:13:36;;;;;;;15.18;5.25;;;15.50;99.90;;;;;;7398406;19;20340;-71
2023/05/25 06:16:02;;;;;;;14.13;4.93;;;15.50;99.90;;;;;;7397253;19;20533;-71
2023/05/25 06:18:28;;;;;;;13.27;4.55;;;15.40;99.90;;;;;;7397664;19;19911;-72
2023/05/25 06:20:54;;;;;;;12.77;4.35;;;15.50;99.90;;;;;;7398541;19;19981;-72
2023/05/25 06:23:20;;;;;;;16.20;4.30;;;15.50;99.90;;;;;;7394067;19;19935;-72
2023/05/25 06:25:46;;;;;;;14.98;4.65;;;15.50;99.90;;;;;;7399156;19;20378;-72
2023/05/25 06:28:12;;;;;;;16.55;5.05;;;15.40;99.90;;;;;;7399490;19;20633;-72
2023/05/25 06:30:38;;;;;;;14.25;4.78;;;15.40;99.90;;;;;;7399016;19;19921;-71
2023/05/25 06:33:03;;;;;;;10.20;4.47;;;15.50;99.90;;;;;;7399050;19;19919;-71
2023/05/25 06:35:29;;;;;;;11.60;4.65;;;15.50;99.90;;;;;;7398408;19;19990;-71
2023/05/25 06:37:55;;;;;;;10.75;5.05;;;15.50;99.90;;;;;;7401257;19;19940;-72
2023/05/25 06:40:21;;;;;;;12.52;5.20;;;15.50;99.90;;;;;;7396345;19;19917;-71
2023/05/25 06:42:47;;;;;;;10.85;4.53;;;15.50;99.90;;;;;;7400607;19;19919;-72
2023/05/25 06:45:12;;;;;;;14.57;4.97;;;15.60;99.90;;;;;;7396414;19;19930;-72
2023/05/25 06:47:38;;;;;;;14.10;5.70;;;15.60;99.90;;;;;;7396977;19;20339;-73
2023/05/25 06:50:05;;;;;;;10.57;5.20;;;15.60;99.90;;;;;;7394518;19;19926;-72
2023/05/25 06:52:31;;;;;;;15.77;5.72;;;15.60;99.90;;;;;;7398164;19;19918;-72
2023/05/25 06:54:56;;;;;;;14.30;6.70;;;15.60;99.90;;;;;;7395566;19;19933;-72
2023/05/25 06:57:23;;;;;;;11.63;6.32;;;15.70;99.90;;;;;;7394662;19;19938;-72
2023/05/25 06:59:49;;;;;;;27.70;15.45;;;15.70;99.90;;;;;;7396632;19;19931;-72
2023/05/25 07:02:15;;;;;;;11.60;6.50;;;15.70;99.90;;;;;;7400121;19;19911;-71
2023/05/25 07:04:41;;;;;;;14.57;7.05;;;15.80;99.90;;;;;;7403815;19;19914;-71
2023/05/25 07:07:08;;;;;;;14.38;6.63;;;15.80;99.90;;;;;;7393821;19;19970;-72
2023/05/25 07:09:34;;;;;;;9.52;6.07;;;15.80;99.90;;;;;;7399907;19;19914;-71
2023/05/25 07:12:00;;;;;;;11.65;6.28;;;15.70;99.90;;;;;;7398740;19;19961;-71
2023/05/25 07:14:25;;;;;;;13.27;5.93;;;15.70;99.90;;;;;;7400525;19;19934;-71
2023/05/25 07:16:51;;;;;;;12.73;6.55;;;15.70;99.90;;;;;;7397887;19;20021;-71
2023/05/25 07:19:17;;;;;;;11.98;6.25;;;15.70;99.90;;;;;;7393518;19;20328;-71
2023/05/25 07:21:43;;;;;;;10.40;6.28;;;15.70;99.90;;;;;;7396114;19;19918;-71
2023/05/25 07:24:08;;;;;;;11.95;6.10;;;15.80;99.90;;;;;;7398163;19;19919;-71
2023/05/25 07:26:35;;;;;;;11.95;5.82;;;15.90;99.90;;;;;;7396956;19;19925;-71
2023/05/25 07:29:01;;;;;;;10.60;5.95;;;15.80;99.90;;;;;;7394437;19;20256;-71
2023/05/25 07:31:27;;;;;;;13.57;6.60;;;15.80;99.90;;;;;;7372295;19;19922;-73
2023/05/25 07:33:54;;;;;;;14.35;6.20;;;15.90;99.90;;;;;;7399592;19;20333;-70
2023/05/25 07:36:23;;;;;;;12.38;7.03;;;15.90;99.90;;;;;;7394029;19;19927;-70
2023/05/25 07:38:49;;;;;;;12.57;6.20;;;16.00;99.90;;;;;;7396908;19;19915;-72
2023/05/25 07:41:15;;;;;;;11.70;6.70;;;16.00;99.90;;;;;;7345662;19;19927;-70
2023/05/25 07:43:40;;;;;;;12.13;6.30;;;16.00;99.90;;;;;;7396253;19;19919;-71
2023/05/25 07:46:06;;;;;;;11.60;6.20;;;16.00;99.90;;;;;;7397739;19;19922;-72
2023/05/25 07:48:32;;;;;;;11.45;6.20;;;16.00;99.90;;;;;;7396444;19;19942;-73
2023/05/25 07:50:58;;;;;;;13.10;6.32;;;15.90;99.90;;;;;;7401031;19;19918;-72
2023/05/25 07:53:24;;;;;;;11.68;5.75;;;16.00;99.90;;;;;;7396624;19;19953;-72
2023/05/25 07:55:49;;;;;;;11.88;6.40;;;15.90;99.90;;;;;;7397950;19;20758;-72
2023/05/25 07:58:15;;;;;;;13.30;5.90;;;16.00;99.90;;;;;;7396335;19;20318;-72
2023/05/25 08:00:42;;;;;;;8.68;5.03;;;16.00;99.90;;;;;;7399952;19;19918;-70
2023/05/25 08:03:08;;;;;;;10.32;5.22;;;16.00;99.90;;;;;;7393697;19;19917;-71
2023/05/25 08:05:34;;;;;;;9.02;5.10;;;15.90;99.90;;;;;;7333924;19;19922;-71
2023/05/25 08:08:00;;;;;;;9.45;5.15;;;15.90;99.90;;;;;;7386442;19;19930;-71
2023/05/25 08:10:30;;;;;;;8.75;4.78;;;15.80;99.90;;;;;;7389281;19;20331;-72
2023/05/25 08:12:57;;;;;;;8.32;4.45;;;15.80;99.90;;;;;;7389924;19;19948;-71
2023/05/25 08:15:23;;;;;;;8.15;4.32;;;15.80;99.90;;;;;;7384396;19;20887;-72
2023/05/25 08:17:49;;;;;;;7.97;4.55;;;15.80;99.90;;;;;;7388816;19;19941;-71
2023/05/25 08:20:16;;;;;;;7.38;4.25;;;15.80;99.90;;;;;;7390115;19;19918;-72
2023/05/25 08:22:42;;;;;;;6.90;4.38;;;15.90;99.90;;;;;;7389595;19;20378;-72
2023/05/25 08:25:08;;;;;;;11.70;4.70;;;16.00;99.90;;;;;;7397932;19;19939;-72
2023/05/25 08:27:35;;;;;;;8.25;4.22;;;16.00;99.90;;;;;;7393110;19;19922;-71
2023/05/25 08:30:00;;;;;;;10.43;4.65;;;16.00;99.90;;;;;;7389117;19;19938;-71
2023/05/25 08:32:26;;;;;;;7.97;4.30;;;15.90;99.90;;;;;;7394835;19;20528;-72
2023/05/25 08:34:52;;;;;;;9.63;4.32;;;16.00;99.90;;;;;;7393408;19;19918;-72
2023/05/25 08:37:20;;;;;;;8.80;4.82;;;15.90;99.90;;;;;;7395485;19;19939;-71
2023/05/25 08:39:45;;;;;;;6.47;3.83;;;15.90;99.90;;;;;;7383320;19;19936;-70
2023/05/25 08:42:11;;;;;;;12.80;6.45;;;16.00;99.90;;;;;;7391826;19;19978;-71
2023/05/25 08:44:38;;;;;;;7.85;4.15;;;16.00;99.90;;;;;;7390139;19;19929;-71
2023/05/25 08:47:06;;;;;;;10.15;4.32;;;16.00;99.90;;;;;;7362555;19;19910;-71
2023/05/25 08:49:37;;;;;;;10.23;5.38;;;16.00;99.90;;;;;;7395978;19;19958;-72
2023/05/25 08:52:09;;;;;;;11.55;4.50;;;16.10;99.90;;;;;;7395431;19;20718;-71
2023/05/25 08:54:36;;;;;;;6.40;3.47;;;16.00;99.90;;;;;;7392454;19;19918;-71
2023/05/25 08:57:10;;;;;;;7.53;4.22;;;16.00;99.90;;;;;;7397865;19;19986;-71
2023/05/25 08:59:40;;;;;;;5.55;3.15;;;16.00;99.90;;;;;;7389913;19;19919;-72
2023/05/25 09:02:30;;;;;;;6.10;3.53;;;16.00;99.90;;;;;;7388279;19;19995;-72
2023/05/25 09:04:59;;;;;;;6.13;3.17;;;16.00;99.90;;;;;;7393249;19;19929;-70
2023/05/25 09:07:25;;;;;;;6.00;3.60;;;16.00;99.90;;;;;;7386044;19;19936;-70
2023/05/25 09:09:51;;;;;;;6.88;3.35;;;16.10;99.90;;;;;;7391417;19;19969;-71
2023/05/25 09:12:17;;;;;;;6.25;3.13;;;16.20;99.90;;;;;;7388294;19;19994;-70
2023/05/25 09:14:46;;;;;;;5.80;2.80;;;16.30;99.90;;;;;;7393548;19;20355;-70
2023/05/25 09:17:15;;;;;;;6.90;2.92;;;16.30;99.90;;;;;;7390798;19;19918;-71
2023/05/25 09:19:41;;;;;;;6.38;3.78;;;16.30;99.90;;;;;;7394043;19;20102;-71
2023/05/25 09:22:09;;;;;;;5.88;3.08;;;16.40;99.90;;;;;;7399074;19;19918;-70
2023/05/25 09:24:35;;;;;;;6.03;2.90;;;16.40;99.90;;;;;;7397105;19;19918;-73
2023/05/25 09:27:02;;;;;;;5.95;2.75;;;16.30;99.90;;;;;;7387652;19;19977;-70
2023/05/25 09:29:28;;;;;;;8.50;3.28;;;16.50;99.90;;;;;;7374127;19;20335;-69
2023/05/25 09:31:55;;;;;;;5.40;3.28;;;16.50;99.90;;;;;;7400043;19;20020;-71
2023/05/25 09:34:21;;;;;;;6.35;3.95;;;16.60;99.90;;;;;;7401111;19;20336;-72
2023/05/25 09:36:47;;;;;;;7.15;3.92;;;16.60;99.90;;;;;;7401341;19;19918;-72
2023/05/25 09:39:12;;;;;;;12.55;4.10;;;16.70;99.90;;;;;;7402107;19;19915;-72
2023/05/25 09:41:42;;;;;;;9.40;3.92;;;16.80;99.90;;;;;;7401178;19;19935;-71
2023/05/25 09:44:08;;;;;;;6.38;4.05;;;17.00;99.90;;;;;;7397410;19;20319;-72
2023/05/25 09:46:37;;;;;;;6.88;3.78;;;17.10;99.90;;;;;;7401323;19;19923;-71
2023/05/25 09:49:07;;;;;;;6.90;3.30;;;17.10;99.90;;;;;;7403948;19;19921;-71
2023/05/25 09:51:37;;;;;;;6.60;3.22;;;17.30;99.90;;;;;;7404124;19;19978;-72
2023/05/25 09:54:03;;;;;;;6.70;4.15;;;17.20;99.90;;;;;;7403522;19;19919;-70
2023/05/25 09:56:33;;;;;;;;;;;17.50;99.90;;;;;;7406910;19;19996;-71
2023/05/25 09:59:00;;;;;;;5.93;4.03;;;17.60;99.90;;;;;;7402537;19;20377;-70
2023/05/25 10:01:26;;;;;;;6.82;3.90;;;17.90;99.90;;;;;;7379461;19;19922;-72
2023/05/25 10:03:55;;;;;;;8.38;3.92;;;17.80;99.90;;;;;;7400392;19;20361;-71
2023/05/25 10:06:25;;;;;;;7.57;4.40;;;17.80;99.90;;;;;;7400957;19;19950;-71
2023/05/25 10:08:52;;;;;;;7.47;4.60;;;17.80;99.90;;;;;;7401212;19;19931;-70
2023/05/25 10:11:20;;;;;;;6.57;3.58;;;17.50;99.90;;;;;;7400053;19;19923;-70
2023/05/25 10:13:46;;;;;;;7.13;4.30;;;17.30;99.90;;;;;;7402808;19;19939;-71
2023/05/25 10:16:17;;;;;;;7.35;4.90;;;17.30;99.90;;;;;;7403080;19;20283;-72
2023/05/25 10:19:14;;;;;;;8.57;5.45;;;17.20;99.90;;;;;;7402939;19;20370;-72
2023/05/25 10:21:41;;;;;;;8.15;4.70;;;17.30;99.90;;;;;;7399927;19;19914;-71
2023/05/25 10:24:23;;;;;;;10.77;6.93;;;17.20;99.90;;;;;;7391853;19;19923;-73
2023/05/25 10:26:53;;;;;;;10.63;6.47;;;16.90;99.90;;;;;;7392603;19;19918;-72
2023/05/25 10:29:20;;;;;;;15.80;8.95;;;16.70;99.90;;;;;;7398400;19;19923;-71
2023/05/25 10:31:47;;;;;;;14.27;7.68;;;16.70;99.90;;;;;;7366138;19;20256;-71
2023/05/25 10:34:13;;;;;;;12.02;7.30;;;16.70;99.90;;;;;;7388943;19;19934;-72
2023/05/25 10:36:40;;;;;;;18.30;8.75;;;16.60;99.90;;;;;;7396137;19;20427;-71
2023/05/25 10:39:07;;;;;;;15.50;8.70;;;16.70;99.90;;;;;;7394004;19;19914;-72
2023/05/25 10:41:33;;;;;;;15.43;9.23;;;16.70;99.90;;;;;;7391479;19;19926;-71
2023/05/25 10:44:00;;;;;;;17.50;10.35;;;16.80;99.90;;;;;;7400953;19;19996;-71
2023/05/25 10:46:27;;;;;;;15.75;9.93;;;16.80;99.90;;;;;;7391972;19;19924;-71
2023/05/25 10:48:59;;;;;;;19.08;10.23;;;16.90;99.90;;;;;;7396090;19;20247;-70
2023/05/25 10:51:39;;;;;;;18.83;10.05;;;17.10;99.90;;;;;;7390231;19;20287;-71
2023/05/25 10:54:05;;;;;;;20.20;11.95;;;16.90;99.90;;;;;;7397585;19;19928;-72
2023/05/25 10:56:32;;;;;;;19.95;11.93;;;16.80;99.90;;;;;;7400442;19;19926;-71
2023/05/25 10:58:58;;;;;;;23.10;12.88;;;16.80;99.90;;;;;;7395290;19;19918;-71
2023/05/25 11:01:25;;;;;;;26.23;16.45;;;17.00;99.90;;;;;;7383560;19;19926;-71
2023/05/25 11:03:57;;;;;;;30.73;17.17;;;17.00;99.90;;;;;;7402595;19;19944;-71
2023/05/25 11:06:45;;;;;;;27.50;17.33;;;17.00;99.90;;;;;;7400509;19;19938;-71
2023/05/25 11:09:27;;;;;;;26.10;18.00;;;17.00;99.90;;;;;;7390082;19;19948;-71
2023/05/25 11:11:54;;;;;;;27.08;18.85;;;17.10;99.90;;;;;;7395903;19;20750;-70
2023/05/25 11:14:22;;;;;;;28.00;17.90;;;17.20;99.90;;;;;;7393178;19;19921;-71
2023/05/25 11:17:17;;;;;;;25.48;16.80;;;17.10;99.90;;;;;;7386701;19;20358;-70
2023/05/25 11:19:49;;;;;;;29.50;16.90;;;17.10;99.90;;;;;;7389374;19;19914;-70
2023/05/25 11:22:32;;;;;;;28.58;17.55;;;17.20;99.90;;;;;;7394165;19;19931;-71
2023/05/25 11:24:59;;;;;;;25.10;15.75;;;17.10;99.90;;;;;;7398403;19;19918;-71
2023/05/25 11:27:29;;;;;;;20.40;12.80;;;16.90;99.90;;;;;;7390856;19;19914;-71
2023/05/25 11:29:57;;;;;;;23.38;13.95;;;17.00;99.90;;;;;;7399611;19;19958;-71
2023/05/25 11:32:25;;;;;;;21.98;12.95;;;17.00;99.90;;;;;;7386233;19;19951;-71
2023/05/25 11:34:56;;;;;;;19.92;10.98;;;17.00;99.90;;;;;;7389501;19;19925;-71
2023/05/25 11:37:27;;;;;;;21.77;12.00;;;16.90;99.90;;;;;;7388329;19;19910;-71
2023/05/25 11:39:56;;;;;;;16.70;9.68;;;16.80;99.90;;;;;;7400273;19;19935;-72
2023/05/25 11:42:23;;;;;;;18.15;9.60;;;16.70;99.90;;;;;;7389128;19;19938;-72
2023/05/25 11:44:49;;;;;;;18.60;9.95;;;16.70;99.90;;;;;;7391667;19;19945;-71
2023/05/25 11:47:21;;;;;;;15.75;9.50;;;16.60;99.90;;;;;;7363325;19;20251;-71
2023/05/25 11:49:48;;;;;;;16.05;9.55;;;16.60;99.90;;;;;;7394423;19;19922;-72
2023/05/25 11:52:19;;;;;;;15.02;9.05;;;16.50;99.90;;;;;;7396858;19;19922;-70
2023/05/25 11:54:45;;;;;;;19.15;9.77;;;16.50;99.90;;;;;;7394822;19;19929;-71
2023/05/25 11:57:17;;;;;;;18.73;9.57;;;16.30;99.90;;;;;;7389063;19;19915;-71
2023/05/25 11:59:49;;;;;;;14.43;8.35;;;16.40;99.90;;;;;;7392624;19;19915;-70
2023/05/25 12:02:16;;;;;;;15.95;8.70;;;16.40;99.90;;;;;;7391854;19;19926;-71
2023/05/25 12:05:03;;;;;;;13.02;8.23;;;16.40;99.90;;;;;;7381627;19;19929;-70
2023/05/25 12:07:30;;;;;;;17.20;8.82;;;16.40;99.90;;;;;;7376184;19;20024;-70
2023/05/25 12:10:11;;;;;;;15.93;8.98;;;16.40;99.90;;;;;;7388591;19;19910;-69
2023/05/25 12:12:40;;;;;;;13.77;8.15;;;16.30;99.90;;;;;;7390432;19;19947;-70
2023/05/25 12:15:21;;;;;;;14.50;7.13;;;16.40;99.90;;;;;;7395484;19;19926;-69
2023/05/25 12:17:47;;;;;;;13.13;6.38;;;16.40;99.90;;;;;;7391847;19;19922;-71
2023/05/25 12:20:15;;;;;;;11.25;6.63;;;16.50;99.90;;;;;;7397117;19;20259;-70
2023/05/25 12:22:42;;;;;;;11.80;6.28;;;16.50;99.90;;;;;;7399953;19;19918;-70
2023/05/25 12:25:09;;;;;;;12.88;6.07;;;16.40;99.90;;;;;;7401096;19;19922;-70
2023/05/25 12:27:36;;;;;;;12.20;6.28;;;16.40;99.90;;;;;;7402453;19;20796;-70
2023/05/25 12:30:03;;;;;;;13.25;6.80;;;16.20;99.90;;;;;;7398509;19;19914;-70
2023/05/25 12:32:29;;;;;;;14.30;7.05;;;16.20;99.90;;;;;;7399855;19;19915;-73
2023/05/25 12:35:05;;;;;;;16.08;8.20;;;16.20;99.90;;;;;;7393411;19;20318;-71
2023/05/25 12:37:31;;;;;;;13.90;7.13;;;16.30;99.90;;;;;;7399334;19;19906;-71
2023/05/25 12:39:57;;;;;;;13.93;7.55;;;16.30;99.90;;;;;;7403249;19;20354;-70
2023/05/25 12:42:26;;;;;;;11.82;5.97;;;16.40;99.90;;;;;;7397367;19;20008;-70
2023/05/25 12:45:00;;;;;;;11.70;6.15;;;16.30;99.90;;;;;;7400453;19;20010;-73